D/T METAR WX W/DIR W/SPE G/SPE TEMP DEWP
9/12/19 12:20 EGNJ 091220Z 31017KT 9999 FEW025 07/01 Q1012 NW (310°) 19.6mph 7°C 1°C
9/12/19 11:50 EGNJ 091150Z 31014KT 9999 FEW025 07/01 Q1011 NW (310°) 16.1mph 7°C 1°C
9/12/19 11:20 EGNJ 091120Z 31016KT 9999 FEW035 07/01 Q1010 NW (310°) 18.4mph 7°C 1°C
9/12/19 10:50 EGNJ 091050Z 31020G31KT 9999 FEW035 07/01 Q1008 NW (310°) 23.0mph 35.7mph 7°C 1°C
9/12/19 10:20 EGNJ 091020Z 31019KT 9999 FEW035 07/01 Q1007 NW (310°) 21.9mph 7°C 1°C
9/12/19 09:50 EGNJ 090950Z 32016KT 9999 FEW035 06/01 Q1006 NW (320°) 18.4mph 6°C 1°C
9/12/19 09:20 EGNJ 090920Z 32016KT 9999 FEW020 06/01 Q1005 NW (320°) 18.4mph 6°C 1°C
9/12/19 08:50 EGNJ 090850Z 31017KT 9999 FEW017 06/02 Q1003 NW (310°) 19.6mph 6°C 2°C
9/12/19 08:20 EGNJ 090820Z 30017KT 9999 FEW017 07/02 Q1002 WNW (300°) 19.6mph 7°C 2°C
9/12/19 07:50 EGNJ 090750Z 31020KT 9999 FEW023 SCT031 07/02 Q1000 NW (310°) 23.0mph 7°C 2°C
9/12/19 07:20 EGNJ 090720Z 31018KT 9999 FEW032 07/03 Q0998 NW (310°) 20.7mph 7°C 3°C
9/12/19 06:50 EGNJ 090650Z 30016KT 9999 FEW032 07/03 Q0997 WNW (300°) 18.4mph 7°C 3°C
9/12/19 05:50 EGNJ 090550Z 30015KT 9999 FEW030 07/03 Q0995 WNW (300°) 17.3mph 7°C 3°C
9/12/19 05:20 EGNJ 090520Z AUTO 30017KT 9999 NCD 07/04 Q0994 WNW (300°) 19.6mph 7°C 4°C
9/12/19 04:50 EGNJ 090450Z AUTO 29016KT 9999 FEW026/// SCT031/// 07/05 Q0992 WNW (290°) 18.4mph 7°C 5°C
9/12/19 04:20 EGNJ 090420Z AUTO 25008KT 9999 SCT028/// BKN033/// BKN038/// 06/04 Q0991 WSW (250°) 9.2mph 6°C 4°C
9/12/19 03:50 EGNJ 090350Z AUTO 25009KT 9999 SCT036/// BKN043/// 06/04 Q0990 WSW (250°) 10.4mph 6°C 4°C
9/12/19 02:50 EGNJ 090250Z AUTO 23012KT 9999 BKN025/// BKN031/// 06/04 Q0989 SW (230°) 13.8mph 6°C 4°C
9/12/19 02:20 EGNJ 090220Z AUTO 22011KT 9999 SCT020/// BKN027/// BKN033/// 06/04 Q0988 SW (220°) 12.7mph 6°C 4°C
9/12/19 01:20 EGNJ 090120Z AUTO 21013KT 9999 BKN019/// BKN024/// OVC035/// 06/04 Q0987 SSW (210°) 15.0mph 6°C 4°C
9/12/19 00:50 EGNJ 090050Z AUTO 22019KT 9999 SCT023/// BKN029/// 06/03 Q0986 SW (220°) 21.9mph 6°C 3°C
9/12/19 00:20 EGNJ 090020Z AUTO 22019KT 9999 FEW015/// SCT020/// BKN025/// 06/03 Q0986 RERA SW (220°) 21.9mph 6°C 3°C
8/12/19 23:50 EGNJ 082350Z AUTO 21017KT 9999 FEW023/// SCT029/// 05/03 Q0986 SSW (210°) 19.6mph 5°C 3°C
8/12/19 23:20 EGNJ 082320Z AUTO 21016KT 9999 NCD 06/03 Q0986 SSW (210°) 18.4mph 6°C 3°C
8/12/19 22:50 EGNJ 082250Z AUTO 22016KT 9999 NCD 06/03 Q0986 SW (220°) 18.4mph 6°C 3°C
8/12/19 22:20 EGNJ 082220Z AUTO 21020KT 9999 NCD 06/03 Q0986 SSW (210°) 23.0mph 6°C 3°C
8/12/19 21:50 EGNJ 082150Z AUTO 21021KT 9999 NCD 06/03 Q0986 SSW (210°) 24.2mph 6°C 3°C
8/12/19 20:50 EGNJ 082050Z 22023KT CAVOK 06/03 Q0987 SW (220°) 26.5mph 6°C 3°C
8/12/19 20:20 EGNJ 082020Z 22023KT CAVOK 06/03 Q0987 SW (220°) 26.5mph 6°C 3°C
8/12/19 19:50 EGNJ 081950Z 22022KT CAVOK 06/03 Q0988 SW (220°) 25.3mph 6°C 3°C
8/12/19 19:20 EGNJ 081920Z 21020KT CAVOK 06/03 Q0988 SSW (210°) 23.0mph 6°C 3°C
8/12/19 18:50 EGNJ 081850Z 21019KT CAVOK 06/03 Q0988 SSW (210°) 21.9mph 6°C 3°C
8/12/19 18:20 EGNJ 081820Z 21018KT CAVOK 06/03 Q0989 SSW (210°) 20.7mph 6°C 3°C
8/12/19 17:20 EGNJ 081720Z 22014KT CAVOK 07/02 Q0989 SW (220°) 16.1mph 7°C 2°C
8/12/19 16:50 EGNJ 081650Z 23015KT 9999 FEW016 FEW022CB 07/03 Q0990 SW (230°) 17.3mph 7°C 3°C
8/12/19 16:20 EGNJ 081620Z 22019G30KT 9999 -SHRA FEW022CB SCT031 08/03 Q0990 -SHRA SW (220°) 21.9mph 34.5mph 8°C 3°C
8/12/19 15:50 EGNJ 081550Z 22017KT 9999 FEW018 FEW025CB 08/03 Q0990 SW (220°) 19.6mph 8°C 3°C
8/12/19 15:20 EGNJ 081520Z 22018KT 9999 FEW018 FEW025CB 08/03 Q0990 SW (220°) 20.7mph 8°C 3°C
8/12/19 14:50 EGNJ 081450Z 23020KT 9999 FEW021 FEW024CB 09/03 Q0991 SW (230°) 23.0mph 9°C 3°C
8/12/19 14:20 EGNJ 081420Z 24019KT 9999 FEW021 FEW024CB 09/03 Q0991 WSW (240°) 21.9mph 9°C 3°C
8/12/19 13:50 EGNJ 081350Z 24019KT 9999 FEW021 FEW024CB 09/03 Q0991 WSW (240°) 21.9mph 9°C 3°C
8/12/19 13:20 EGNJ 081320Z 24021KT 9999 SCT030 SCT045 10/03 Q0991 WSW (240°) 24.2mph 10°C 3°C
8/12/19 12:50 EGNJ 081250Z 24023KT 9999 FEW025 SCT045 10/03 Q0992 WSW (240°) 26.5mph 10°C 3°C
8/12/19 12:20 EGNJ 081220Z 23023KT 9999 FEW024 10/04 Q0992 SW (230°) 26.5mph 10°C 4°C
8/12/19 11:50 EGNJ 081150Z 23023KT 9999 FEW021 09/04 Q0992 SW (230°) 26.5mph 9°C 4°C
8/12/19 11:20 EGNJ 081120Z 23026KT 9999 FEW027 SCT032 09/05 Q0992 SW (230°) 29.9mph 9°C 5°C
8/12/19 10:50 EGNJ 081050Z 23024KT 9999 FEW030 09/05 Q0993 SW (230°) 27.6mph 9°C 5°C
8/12/19 10:20 EGNJ 081020Z 22020KT 9999 FEW028 09/05 Q0993 SW (220°) 23.0mph 9°C 5°C